Weather at C 519 Heliport

Public forecast

Using degrees Celsius for public forecast. Weather courtesy of forecast.io.

Closest aviation weather report (METAR) to C 519 Heliport

Report is more than 6 hours old.

Closest report is Suwon Airport, 8.0 nm (14.8 km) ENE. Retrieved 2020/10/22 03:09 UTC (3 days ago):

RKSW 220309Z 31008KT 8000 BR FEW025 BKN040 19/13 A2993 RMK CIG040

Closest aviation forecast (TAF) to C 519 Heliport

Forecast is more than 12 hours old.

Closest forecast is Suwon Airport, 8.0 nm (14.8 km) ENE. Retrieved 2009/08/10 23:00 UTC (11 years ago):

TAF RKSW 102300Z 110024 09008KT 9000 -RA BR BKN030 OVC080 BECMG 0607 15010KT 4800 -RA BR BKN015 OVC030 BECMG 0910 15010G20KT 3200 RA BR BKN010 OVC020 BECMG 2324 15010G20KT 4800 -RA BR BKN015 OVC030 T29/05Z T24/21Z